createdAt,value
2019-02-08T00:00:29.738Z,77.26
2019-02-08T00:02:58.405Z,77.11
2019-02-08T00:05:26.706Z,77.07
2019-02-08T00:07:55.008Z,77.11
2019-02-08T00:10:23.319Z,77.09
2019-02-08T00:12:51.623Z,77.00
2019-02-08T00:15:21.469Z,77.07
2019-02-08T00:17:49.951Z,77.23
2019-02-08T00:20:19.395Z,77.25
2019-02-08T00:22:48.056Z,77.35
2019-02-08T00:25:20.391Z,77.55
2019-02-08T00:27:49.038Z,77.81
2019-02-08T00:30:28.466Z,77.72
2019-02-08T00:32:57.157Z,77.97
2019-02-08T00:35:25.430Z,78.05
2019-02-08T00:37:54.113Z,78.02
2019-02-08T00:40:24.813Z,77.96
2019-02-08T00:42:53.174Z,77.95
2019-02-08T00:45:22.603Z,78.03
2019-02-08T00:47:50.912Z,78.17
2019-02-08T00:50:28.426Z,78.27
2019-02-08T00:52:57.360Z,78.25
2019-02-08T00:55:26.013Z,78.54
2019-02-08T00:57:54.770Z,78.60
2019-02-08T01:00:24.323Z,78.57
2019-02-08T01:02:53.850Z,78.49
2019-02-08T01:05:29.040Z,78.23
2019-02-08T01:07:57.773Z,78.08
2019-02-08T01:10:30.928Z,78.19
2019-02-08T01:13:00.534Z,78.14
2019-02-08T01:15:31.429Z,77.80
2019-02-08T01:18:00.007Z,77.80
2019-02-08T01:20:28.365Z,77.75
2019-02-08T01:22:56.659Z,77.60
2019-02-08T01:25:27.145Z,77.60
2019-02-08T01:27:55.457Z,77.51
2019-02-08T01:30:36.090Z,77.58
2019-02-08T01:33:04.645Z,77.61
2019-02-08T01:35:33.124Z,77.78
2019-02-08T01:38:02.054Z,77.74
2019-02-08T01:43:12.152Z,77.87
2019-02-08T01:45:40.752Z,77.85
2019-02-08T01:48:09.119Z,78.02
2019-02-08T01:50:37.463Z,78.07
2019-02-08T01:53:06.283Z,77.92
2019-02-08T01:55:34.606Z,77.95
2019-02-08T01:58:02.894Z,77.93
2019-02-08T02:00:33.995Z,77.79
2019-02-08T02:03:02.518Z,78.03
2019-02-08T02:05:31.197Z,78.10
2019-02-08T02:07:59.847Z,78.01
2019-02-08T02:10:33.344Z,77.99
2019-02-08T02:13:02.234Z,77.97
2019-02-08T02:15:31.069Z,78.03
2019-02-08T02:17:59.545Z,78.16
2019-02-08T02:20:31.295Z,78.19
2019-02-08T02:22:59.768Z,78.02
2019-02-08T02:25:28.317Z,77.95
2019-02-08T02:27:56.620Z,78.14
2019-02-08T02:30:33.402Z,78.17
2019-02-08T02:33:01.914Z,78.33
2019-02-08T02:35:30.385Z,78.45
2019-02-08T02:37:58.662Z,78.53
2019-02-08T02:40:27.304Z,78.56
2019-02-08T02:42:55.690Z,78.49
2019-02-08T02:45:30.139Z,78.64
2019-02-08T02:47:58.697Z,78.78
2019-02-08T02:50:27.079Z,78.81
2019-02-08T02:52:55.560Z,78.74
2019-02-08T02:55:26.211Z,78.68
2019-02-08T02:57:54.862Z,78.45
2019-02-08T03:00:32.289Z,78.63
2019-02-08T03:03:00.676Z,78.78
2019-02-08T03:05:29.759Z,78.69
2019-02-08T03:07:58.521Z,78.64
2019-02-08T03:10:27.208Z,78.62
2019-02-08T03:12:55.575Z,78.66
2019-02-08T03:15:25.117Z,78.67
2019-02-08T03:17:53.595Z,78.62
2019-02-08T03:20:23.531Z,78.95
2019-02-08T03:22:51.897Z,78.85
2019-02-08T03:25:27.968Z,79.25
2019-02-08T03:27:56.441Z,79.60
2019-02-08T03:30:28.201Z,79.75
2019-02-08T03:32:56.578Z,80.15
2019-02-08T03:35:26.296Z,80.17
2019-02-08T03:37:56.432Z,80.62
2019-02-08T03:40:27.426Z,80.81
2019-02-08T03:42:55.963Z,81.09
2019-02-08T03:45:26.518Z,81.19
2019-02-08T03:47:54.877Z,81.13
2019-02-08T03:50:26.112Z,81.11
2019-02-08T03:52:55.051Z,81.26
2019-02-08T03:55:24.197Z,81.09
2019-02-08T03:57:52.733Z,81.16
2019-02-08T04:00:25.294Z,81.03
2019-02-08T04:02:54.162Z,80.58
2019-02-08T04:05:22.514Z,80.79
2019-02-08T04:07:50.813Z,80.67
2019-02-08T04:10:20.249Z,80.62
2019-02-08T04:12:48.927Z,80.52
2019-02-08T04:15:25.118Z,80.39
2019-02-08T04:17:53.420Z,80.41
2019-02-08T04:20:26.511Z,80.16
2019-02-08T04:22:55.974Z,80.03
2019-02-08T04:25:25.521Z,80.03
2019-02-08T04:27:54.382Z,79.92
2019-02-08T04:30:30.294Z,80.17
2019-02-08T04:33:00.411Z,80.29
2019-02-08T04:35:28.774Z,79.95
2019-02-08T04:37:57.646Z,80.21
2019-02-08T04:40:26.967Z,80.36
2019-02-08T04:42:55.350Z,80.36
2019-02-08T04:45:24.049Z,80.51
2019-02-08T04:47:52.342Z,80.60
2019-02-08T04:50:25.896Z,80.69
2019-02-08T04:52:54.859Z,80.51
2019-02-08T04:55:23.274Z,80.56
2019-02-08T04:57:51.551Z,80.60
2019-02-08T05:00:28.023Z,80.41
2019-02-08T05:02:56.600Z,80.41
2019-02-08T05:05:25.331Z,80.50
2019-02-08T05:07:53.621Z,80.53
2019-02-08T05:10:27.857Z,80.55
2019-02-08T05:12:56.491Z,80.38
2019-02-08T05:15:25.071Z,80.60
2019-02-08T05:17:53.497Z,80.65
2019-02-08T05:20:27.305Z,80.61
2019-02-08T05:22:55.620Z,80.64
2019-02-08T05:25:24.298Z,80.62
2019-02-08T05:27:52.919Z,80.83
2019-02-08T05:30:24.464Z,81.36
2019-02-08T05:32:53.457Z,81.92
2019-02-08T05:35:21.909Z,82.45
2019-02-08T05:37:50.223Z,83.46
2019-02-08T05:40:20.347Z,82.91
2019-02-08T05:42:49.034Z,83.51
2019-02-08T05:45:19.948Z,84.02
2019-02-08T05:47:48.249Z,84.60
2019-02-08T05:50:24.532Z,85.04
2019-02-08T05:52:52.835Z,85.01
2019-02-08T05:55:26.960Z,85.46
2019-02-08T05:57:55.271Z,85.59
2019-02-08T06:00:34.398Z,85.39
2019-02-08T06:03:02.976Z,85.65
2019-02-08T06:05:31.445Z,85.88
2019-02-08T06:07:59.741Z,85.96
2019-02-08T06:10:28.057Z,86.14
2019-02-08T06:12:56.410Z,86.31
2019-02-08T06:15:25.664Z,86.29
2019-02-08T06:17:54.126Z,86.29
2019-02-08T06:20:24.552Z,86.23
2019-02-08T06:22:53.113Z,86.20
2019-02-08T06:25:22.785Z,86.07
2019-02-08T06:27:51.582Z,85.85
2019-02-08T06:30:22.803Z,85.94
2019-02-08T06:32:51.247Z,85.86
2019-02-08T06:35:21.083Z,85.69
2019-02-08T06:37:49.458Z,85.42
2019-02-08T06:40:26.196Z,85.67
2019-02-08T06:42:54.976Z,85.63
2019-02-08T06:45:25.219Z,85.60
2019-02-08T06:47:53.797Z,85.47
2019-02-08T06:50:24.421Z,85.51
2019-02-08T06:52:53.174Z,85.56
2019-02-08T06:55:22.486Z,85.43
2019-02-08T06:57:54.923Z,85.48
2019-02-08T07:00:29.567Z,85.42
2019-02-08T07:02:59.511Z,85.36
2019-02-08T07:05:32.032Z,85.15
2019-02-08T07:08:05.268Z,85.25
2019-02-08T07:10:35.485Z,85.11
2019-02-08T07:13:05.426Z,85.07
2019-02-08T07:15:38.011Z,85.15
2019-02-08T07:18:07.933Z,85.17
2019-02-08T07:20:40.563Z,85.04
2019-02-08T07:23:26.922Z,84.98
2019-02-08T07:25:57.186Z,84.86
2019-02-08T07:28:27.111Z,84.81
2019-02-08T07:31:06.098Z,84.68
2019-02-08T07:33:38.888Z,84.28
2019-02-08T07:36:14.999Z,84.03
2019-02-08T07:38:45.100Z,84.02
2019-02-08T07:41:31.331Z,83.86
2019-02-08T07:44:10.701Z,83.64
2019-02-08T07:46:47.396Z,83.41
2019-02-08T07:49:17.809Z,83.22
2019-02-08T07:51:47.742Z,83.13
2019-02-08T07:54:27.180Z,82.91
2019-02-08T07:56:57.177Z,82.83
2019-02-08T07:59:44.741Z,82.56
2019-02-08T08:02:17.605Z,82.39
2019-02-08T08:04:50.607Z,82.33
2019-02-08T08:07:29.447Z,82.13
2019-02-08T08:10:00.251Z,81.90
2019-02-08T08:12:33.248Z,81.78
2019-02-08T08:15:15.193Z,81.38
2019-02-08T08:17:51.136Z,81.31
2019-02-08T08:20:35.501Z,81.08
2019-02-08T08:23:08.776Z,80.88
2019-02-08T08:25:42.789Z,80.63
2019-02-08T08:28:12.900Z,80.20
2019-02-08T08:30:45.260Z,79.55
2019-02-08T08:33:31.928Z,79.32
2019-02-08T08:36:21.400Z,79.45
2019-02-08T08:39:10.758Z,79.15
2019-02-08T08:41:48.043Z,78.98
2019-02-08T08:44:34.192Z,78.87
2019-02-08T08:47:23.832Z,78.99
2019-02-08T08:50:10.702Z,78.76
2019-02-08T08:52:57.046Z,78.50
2019-02-08T08:55:46.024Z,78.20
2019-02-08T08:58:29.488Z,77.92
2019-02-08T09:01:28.368Z,77.80
2019-02-08T09:04:32.170Z,77.57
2019-02-08T09:07:26.241Z,77.66
2019-02-08T09:10:13.221Z,77.21
2019-02-08T09:12:44.788Z,77.00
2019-02-08T09:15:22.423Z,77.20
2019-02-08T09:18:06.243Z,77.05
2019-02-08T09:20:46.677Z,76.92
2019-02-08T09:23:48.423Z,77.09
2019-02-08T09:26:28.289Z,77.05
2019-02-08T09:29:19.274Z,76.65
2019-02-08T09:31:59.319Z,76.35
2019-02-08T09:35:02.928Z,76.11
2019-02-08T09:38:00.230Z,75.99
2019-02-08T09:40:48.040Z,75.85
2019-02-08T09:43:26.085Z,75.56
2019-02-08T09:46:15.641Z,75.76
2019-02-08T09:49:20.510Z,75.70
2019-02-08T09:52:15.662Z,75.28
2019-02-08T09:54:53.500Z,74.78
2019-02-08T09:57:43.393Z,74.49
2019-02-08T10:00:29.926Z,74.68
2019-02-08T10:03:36.191Z,74.86
2019-02-08T10:06:27.366Z,74.58
2019-02-08T10:09:26.579Z,74.72
2019-02-08T10:12:17.750Z,74.50
2019-02-08T10:14:58.258Z,74.57
2019-02-08T10:17:50.666Z,74.26
2019-02-08T10:20:31.561Z,74.10
2019-02-08T10:23:32.044Z,73.83
2019-02-08T10:26:29.161Z,73.40
2019-02-08T10:29:03.659Z,73.19
2019-02-08T10:32:08.397Z,72.96
2019-02-08T10:35:13.193Z,72.51
2019-02-08T10:38:18.146Z,72.40
2019-02-08T10:41:06.129Z,72.19
2019-02-08T10:44:02.971Z,72.28
2019-02-08T10:46:40.311Z,72.25
2019-02-08T10:49:47.005Z,71.76
2019-02-08T10:52:41.305Z,72.00
2019-02-08T10:55:46.278Z,72.07
2019-02-08T10:58:51.292Z,72.00
2019-02-08T11:01:31.974Z,72.06
2019-02-08T11:04:37.393Z,72.15
2019-02-08T11:07:28.565Z,72.31
2019-02-08T11:10:33.825Z,72.04
2019-02-08T11:13:11.546Z,72.35
2019-02-08T11:15:52.828Z,72.06
2019-02-08T11:18:42.343Z,71.89
2019-02-08T11:21:10.658Z,71.85
2019-02-08T11:23:38.959Z,71.87
2019-02-08T11:26:08.216Z,71.68
2019-02-08T11:28:37.036Z,71.69
2019-02-08T11:31:05.569Z,71.39
2019-02-08T11:33:34.010Z,70.99
2019-02-08T11:36:02.390Z,70.94
2019-02-08T11:38:30.961Z,70.97
2019-02-08T11:40:59.563Z,70.83
2019-02-08T11:43:28.127Z,70.52
2019-02-08T11:45:56.705Z,70.37
2019-02-08T11:48:25.025Z,70.21
2019-02-08T11:50:53.357Z,69.93
2019-02-08T11:53:21.645Z,69.08
2019-02-08T11:55:49.970Z,69.18
2019-02-08T11:58:18.296Z,69.61
2019-02-08T12:00:54.132Z,69.26
2019-02-08T12:03:22.431Z,69.29
2019-02-08T12:05:50.751Z,69.03
2019-02-08T12:08:19.219Z,69.05
2019-02-08T12:10:47.524Z,68.85
2019-02-08T12:13:15.827Z,69.04
2019-02-08T12:15:44.121Z,68.75
2019-02-08T12:18:12.426Z,68.88
2019-02-08T12:20:41.088Z,68.59
2019-02-08T12:23:09.372Z,67.79
2019-02-08T12:25:37.680Z,68.53
2019-02-08T12:28:05.980Z,68.63
2019-02-08T12:30:37.284Z,68.56
2019-02-08T12:33:06.063Z,68.69
2019-02-08T12:35:34.370Z,68.31
2019-02-08T12:38:02.679Z,68.16
2019-02-08T12:40:31.392Z,67.79
2019-02-08T12:43:00.067Z,67.41
2019-02-08T12:45:28.439Z,68.05
2019-02-08T12:47:56.729Z,68.29
2019-02-08T12:50:25.229Z,68.22
2019-02-08T12:52:53.541Z,68.12
2019-02-08T12:55:22.164Z,68.70
2019-02-08T12:57:50.464Z,69.14
2019-02-08T13:00:26.311Z,69.14
2019-02-08T13:02:54.718Z,69.01
2019-02-08T13:05:23.007Z,68.96
2019-02-08T13:07:51.485Z,69.03
2019-02-08T13:10:31.929Z,69.16
2019-02-08T13:13:00.244Z,69.15
2019-02-08T13:15:28.574Z,68.87
2019-02-08T13:17:56.878Z,68.78
2019-02-08T13:20:25.476Z,68.89
2019-02-08T13:22:53.812Z,68.73
2019-02-08T13:25:22.172Z,68.67
2019-02-08T13:27:51.161Z,68.54
2019-02-08T13:30:33.326Z,68.68
2019-02-08T13:33:01.672Z,69.02
2019-02-08T13:35:30.129Z,69.12
2019-02-08T13:37:58.700Z,69.30
2019-02-08T13:40:31.026Z,69.20
2019-02-08T13:42:59.386Z,69.01
2019-02-08T13:45:27.743Z,68.79
2019-02-08T13:47:56.060Z,68.29
2019-02-08T13:50:32.938Z,68.66
2019-02-08T13:53:01.569Z,68.55
2019-02-08T13:55:29.888Z,68.39
2019-02-08T13:57:58.191Z,68.63
2019-02-08T14:00:34.501Z,68.71
2019-02-08T14:03:02.828Z,68.45
2019-02-08T14:05:31.195Z,68.35
2019-02-08T14:07:59.497Z,68.21
2019-02-08T14:10:27.859Z,68.33
2019-02-08T14:12:56.137Z,68.69
2019-02-08T14:15:25.713Z,68.84
2019-02-08T14:17:54.163Z,68.05
2019-02-08T14:20:25.259Z,68.75
2019-02-08T14:22:54.410Z,68.92
2019-02-08T14:25:22.785Z,68.88
2019-02-08T14:27:51.239Z,68.73
2019-02-08T14:30:34.157Z,69.06
2019-02-08T14:33:02.516Z,69.13
2019-02-08T14:35:31.006Z,69.50
2019-02-08T14:38:01.115Z,69.36
2019-02-08T14:40:30.619Z,69.55
2019-02-08T14:42:58.997Z,69.50
2019-02-08T14:45:27.357Z,69.89
2019-02-08T14:47:55.750Z,69.88
2019-02-08T14:50:28.908Z,70.06
2019-02-08T14:52:58.047Z,70.37
2019-02-08T14:55:26.329Z,70.28
2019-02-08T14:57:57.080Z,70.45
2019-02-08T15:00:25.613Z,70.91
2019-02-08T15:02:53.923Z,70.89
2019-02-08T15:05:23.076Z,71.04
2019-02-08T15:07:51.619Z,71.04
2019-02-08T15:10:44.401Z,71.18
2019-02-08T15:13:12.896Z,71.04
2019-02-08T15:15:41.283Z,71.15
2019-02-08T15:18:09.646Z,71.32
2019-02-08T15:20:38.925Z,71.70
2019-02-08T15:23:07.230Z,71.31
2019-02-08T15:25:35.784Z,71.66
2019-02-08T15:28:04.383Z,71.78
2019-02-08T15:30:36.744Z,71.37
2019-02-08T15:33:05.865Z,71.62
2019-02-08T15:35:35.159Z,72.06
2019-02-08T15:38:04.679Z,72.17
2019-02-08T15:40:39.360Z,72.08
2019-02-08T15:43:08.799Z,71.90
2019-02-08T15:45:37.542Z,72.39
2019-02-08T15:48:05.995Z,72.61
2019-02-08T15:50:34.616Z,72.81
2019-02-08T15:53:02.912Z,72.70
2019-02-08T15:55:37.369Z,73.05
2019-02-08T15:58:05.922Z,73.10
2019-02-08T16:00:34.421Z,72.93
2019-02-08T16:03:02.897Z,72.79
2019-02-08T16:05:32.271Z,72.87
2019-02-08T16:08:00.628Z,72.95
2019-02-08T16:10:29.206Z,73.19
2019-02-08T16:12:57.602Z,73.17
2019-02-08T16:15:30.497Z,73.22
2019-02-08T16:17:58.805Z,73.19
2019-02-08T16:20:29.212Z,73.20
2019-02-08T16:22:59.383Z,73.22
2019-02-08T16:25:31.900Z,73.12
2019-02-08T16:28:00.213Z,73.26
2019-02-08T16:30:33.882Z,73.24
2019-02-08T16:33:02.274Z,73.28
2019-02-08T16:35:30.617Z,73.24
2019-02-08T16:37:59.253Z,73.25
2019-02-08T16:40:31.422Z,73.17
2019-02-08T16:43:00.097Z,73.19
2019-02-08T16:45:39.216Z,73.10
2019-02-08T16:48:12.276Z,73.27
2019-02-08T16:50:41.824Z,73.33
2019-02-08T16:53:10.971Z,73.21
2019-02-08T16:55:39.668Z,73.11
2019-02-08T16:58:09.403Z,73.09
2019-02-08T17:00:38.834Z,73.08
2019-02-08T17:03:09.926Z,73.09
2019-02-08T17:05:38.213Z,73.14
2019-02-08T17:08:06.648Z,73.25
2019-02-08T17:10:34.924Z,73.01
2019-02-08T17:13:03.235Z,72.98
2019-02-08T17:15:32.457Z,73.07
2019-02-08T17:18:00.836Z,73.08
2019-02-08T17:20:38.089Z,73.06
2019-02-08T17:23:06.655Z,73.13
2019-02-08T17:25:34.957Z,73.25
2019-02-08T17:28:04.100Z,73.24
2019-02-08T17:30:32.406Z,73.37
2019-02-08T17:33:00.882Z,73.37
2019-02-08T17:35:29.717Z,73.36
2019-02-08T17:37:58.492Z,73.44
2019-02-08T17:40:32.070Z,73.48
2019-02-08T17:43:00.447Z,73.54
2019-02-08T17:45:28.818Z,73.50
2019-02-08T17:47:58.356Z,73.55
2019-02-08T17:50:27.480Z,73.61
2019-02-08T17:52:55.965Z,73.50
2019-02-08T17:55:28.829Z,73.48
2019-02-08T17:58:03.225Z,73.46
2019-02-08T18:00:47.081Z,73.19
2019-02-08T18:03:15.666Z,73.33
2019-02-08T18:05:43.987Z,73.22
2019-02-08T18:08:12.291Z,73.16
2019-02-08T18:10:40.672Z,73.24
2019-02-08T18:13:09.195Z,73.24
2019-02-08T18:15:37.506Z,73.37
2019-02-08T18:18:08.457Z,73.29
2019-02-08T18:20:42.545Z,73.21
2019-02-08T18:23:11.194Z,73.20
2019-02-08T18:25:39.497Z,73.17
2019-02-08T18:28:11.108Z,73.04
2019-02-08T18:30:38.292Z,72.82
2019-02-08T18:33:06.592Z,72.88
2019-02-08T18:35:34.943Z,72.99
2019-02-08T18:38:03.320Z,73.01
2019-02-08T18:40:31.860Z,72.89
2019-02-08T18:43:00.149Z,72.79
2019-02-08T18:45:35.928Z,72.75
2019-02-08T18:48:05.519Z,72.77
2019-02-08T18:50:42.916Z,72.64
2019-02-08T18:53:11.213Z,72.52
2019-02-08T18:55:39.513Z,72.60
2019-02-08T18:58:07.896Z,72.69
2019-02-08T19:00:41.889Z,72.61
2019-02-08T19:03:10.277Z,72.54
2019-02-08T19:05:38.552Z,72.51
2019-02-08T19:08:07.618Z,72.51
2019-02-08T19:10:35.928Z,72.32
2019-02-08T19:13:04.755Z,72.17
2019-02-08T19:15:33.052Z,72.41
2019-02-08T19:18:01.355Z,72.46
2019-02-08T19:20:30.117Z,72.25
2019-02-08T19:22:58.432Z,72.45
2019-02-08T19:25:35.012Z,72.54
2019-02-08T19:28:03.663Z,72.50
2019-02-08T19:30:34.117Z,72.48
2019-02-08T19:33:02.401Z,72.53
2019-02-08T19:35:30.766Z,72.58
2019-02-08T19:37:59.149Z,72.69
2019-02-08T19:40:45.006Z,72.74
2019-02-08T19:43:13.772Z,72.87
2019-02-08T19:45:42.248Z,72.90
2019-02-08T19:48:11.344Z,72.96
2019-02-08T19:50:41.521Z,72.87
2019-02-08T19:53:10.130Z,72.85
2019-02-08T19:55:38.903Z,72.97
2019-02-08T19:58:08.309Z,72.97
2019-02-08T20:00:38.638Z,72.96
2019-02-08T20:03:08.069Z,72.90
2019-02-08T20:05:36.624Z,72.87
2019-02-08T20:08:05.781Z,73.03
2019-02-08T20:10:39.770Z,73.06
2019-02-08T20:13:08.206Z,73.10
2019-02-08T20:15:36.564Z,73.29
2019-02-08T20:18:05.523Z,73.23
2019-02-08T20:20:33.802Z,73.23
2019-02-08T20:23:02.107Z,73.20
2019-02-08T20:25:34.435Z,73.24
2019-02-08T20:28:02.856Z,73.16
2019-02-08T20:30:32.094Z,73.13
2019-02-08T20:33:00.832Z,73.11
2019-02-08T20:35:29.569Z,73.00
2019-02-08T20:37:58.810Z,73.02
2019-02-08T20:40:45.194Z,72.84
2019-02-08T20:43:13.642Z,72.83
2019-02-08T20:45:41.914Z,72.73
2019-02-08T20:48:13.239Z,72.59
2019-02-08T20:50:41.582Z,72.52
2019-02-08T20:53:10.523Z,72.45
2019-02-08T20:55:38.978Z,72.34
2019-02-08T20:58:09.333Z,72.32
2019-02-08T21:00:39.265Z,72.29
2019-02-08T21:03:10.080Z,72.54
2019-02-08T21:05:38.823Z,72.59
2019-02-08T21:08:08.158Z,72.56
2019-02-08T21:10:36.822Z,72.49
2019-02-08T21:13:07.233Z,72.33
2019-02-08T21:15:35.526Z,72.32
2019-02-08T21:18:04.846Z,72.44
2019-02-08T21:20:33.143Z,72.42
2019-02-08T21:23:01.696Z,72.44
2019-02-08T21:25:31.880Z,72.03
2019-02-08T21:28:00.321Z,72.27
2019-02-08T21:30:28.690Z,72.31
2019-02-08T21:32:57.369Z,72.28
2019-02-08T21:35:25.718Z,72.24
2019-02-08T21:37:54.122Z,72.29
2019-02-08T21:40:29.795Z,72.37
2019-02-08T21:42:58.175Z,72.39
2019-02-08T21:45:31.167Z,72.31
2019-02-08T21:48:00.047Z,72.27
2019-02-08T21:50:29.110Z,72.40
2019-02-08T21:52:57.596Z,72.43
2019-02-08T21:55:27.604Z,72.52
2019-02-08T21:57:56.175Z,72.58
2019-02-08T22:00:29.256Z,72.59
2019-02-08T22:02:58.486Z,72.49
2019-02-08T22:05:30.114Z,72.53
2019-02-08T22:07:58.411Z,72.71
2019-02-08T22:10:26.760Z,72.79
2019-02-08T22:12:55.363Z,72.76
2019-02-08T22:15:29.163Z,72.70
2019-02-08T22:17:57.538Z,72.70
2019-02-08T22:20:26.108Z,72.65
2019-02-08T22:22:54.385Z,72.59
2019-02-08T22:25:28.034Z,72.57
2019-02-08T22:27:56.420Z,72.51
2019-02-08T22:30:26.279Z,72.38
2019-02-08T22:33:08.592Z,72.24
2019-02-08T22:35:37.234Z,72.13
2019-02-08T22:38:06.569Z,72.00
2019-02-08T22:40:34.869Z,72.16
2019-02-08T22:43:03.154Z,72.32
2019-02-08T22:45:33.515Z,72.37
2019-02-08T22:48:01.873Z,71.94
2019-02-08T22:50:30.388Z,72.29
2019-02-08T22:52:58.783Z,72.22
2019-02-08T22:55:34.301Z,72.08
2019-02-08T22:58:02.618Z,71.98
2019-02-08T23:00:44.530Z,71.95
2019-02-08T23:03:13.990Z,71.79
2019-02-08T23:05:45.705Z,71.90
2019-02-08T23:08:12.355Z,71.84
2019-02-08T23:10:41.006Z,71.68
2019-02-08T23:13:10.243Z,71.68
2019-02-08T23:15:38.833Z,71.76
2019-02-08T23:18:09.019Z,71.67
2019-02-08T23:20:37.606Z,71.93
2019-02-08T23:23:06.779Z,72.52
2019-02-08T23:25:35.075Z,72.53
2019-02-08T23:28:03.366Z,73.14
2019-02-08T23:30:31.748Z,74.33
2019-02-08T23:33:00.050Z,74.89
2019-02-08T23:35:28.886Z,75.36
2019-02-08T23:37:57.167Z,76.46
2019-02-08T23:40:25.499Z,77.54
2019-02-08T23:42:53.788Z,78.78
2019-02-08T23:45:25.319Z,79.46
2019-02-08T23:47:53.956Z,79.73
2019-02-08T23:50:23.395Z,81.08
2019-02-08T23:52:51.681Z,81.86
2019-02-08T23:55:24.336Z,81.89
2019-02-08T23:57:52.631Z,82.88
